createdAt,value
2016-10-29T00:00:56.434Z,12.86
2016-10-29T00:01:56.449Z,12.8
2016-10-29T00:02:56.466Z,12.78
2016-10-29T00:03:56.504Z,12.79
2016-10-29T00:04:56.504Z,12.79
2016-10-29T00:05:56.537Z,12.83
2016-10-29T00:06:56.544Z,12.78
2016-10-29T00:07:56.558Z,12.76
2016-10-29T00:08:56.582Z,12.76
2016-10-29T00:09:56.592Z,12.79
2016-10-29T00:10:56.621Z,12.75
2016-10-29T00:11:56.632Z,12.82
2016-10-29T00:12:56.646Z,12.76
2016-10-29T00:13:56.666Z,12.78
2016-10-29T00:14:56.680Z,12.83
2016-10-29T00:15:56.703Z,12.82
2016-10-29T00:16:56.720Z,12.75
2016-10-29T00:17:56.734Z,12.82
2016-10-29T00:18:56.754Z,12.72
2016-10-29T00:19:56.772Z,12.75
2016-10-29T00:20:56.788Z,12.78
2016-10-29T00:21:56.807Z,12.82
2016-10-29T00:22:56.823Z,12.73
2016-10-29T00:23:56.842Z,12.7
2016-10-29T00:24:56.863Z,12.7
2016-10-29T00:25:56.878Z,12.73
2016-10-29T00:26:56.901Z,12.76
2016-10-29T00:27:56.923Z,12.76
2016-10-29T00:28:56.942Z,12.68
2016-10-29T00:29:56.950Z,12.67
2016-10-29T00:30:57.011Z,12.76
2016-10-29T00:31:56.987Z,12.62
2016-10-29T00:32:57.002Z,12.72
2016-10-29T00:33:57.030Z,12.62
2016-10-29T00:34:57.041Z,12.65
2016-10-29T00:35:57.058Z,12.61
2016-10-29T00:36:57.078Z,12.68
2016-10-29T00:37:57.103Z,12.67
2016-10-29T00:38:57.113Z,12.61
2016-10-29T00:39:57.128Z,12.7
2016-10-29T00:40:57.152Z,12.67
2016-10-29T00:41:57.169Z,12.67
2016-10-29T00:42:57.228Z,12.62
2016-10-29T00:43:57.205Z,12.65
2016-10-29T00:44:57.230Z,12.64
2016-10-29T00:45:57.239Z,12.62
2016-10-29T00:46:57.255Z,12.67
2016-10-29T00:47:57.282Z,12.62
2016-10-29T00:48:57.293Z,12.61
2016-10-29T00:49:57.315Z,12.64
2016-10-29T00:50:57.326Z,12.64
2016-10-29T00:51:57.345Z,12.62
2016-10-29T00:52:57.367Z,12.61
2016-10-29T00:53:57.388Z,12.62
2016-10-29T00:54:57.407Z,12.6
2016-10-29T00:55:57.738Z,12.6
2016-10-29T00:56:57.434Z,12.53
2016-10-29T00:57:57.451Z,12.55
2016-10-29T00:58:57.473Z,12.53
2016-10-29T00:59:57.487Z,12.54
2016-10-29T01:00:57.510Z,12.5
2016-10-29T01:01:57.526Z,12.54
2016-10-29T01:02:57.546Z,12.54
2016-10-29T01:03:57.566Z,12.5
2016-10-29T01:04:57.579Z,12.46
2016-10-29T01:05:57.593Z,12.53
2016-10-29T01:06:57.613Z,12.46
2016-10-29T01:07:57.672Z,12.46
2016-10-29T01:08:57.658Z,12.46
2016-10-29T01:09:57.665Z,12.5
2016-10-29T01:10:57.684Z,12.46
2016-10-29T01:11:57.700Z,12.42
2016-10-29T01:12:57.718Z,12.45
2016-10-29T01:13:58.066Z,12.46
2016-10-29T01:14:57.752Z,12.43
2016-10-29T01:15:57.769Z,12.42
2016-10-29T01:16:57.788Z,12.39
2016-10-29T01:17:57.804Z,12.35
2016-10-29T01:18:57.822Z,12.35
2016-10-29T01:19:57.844Z,12.45
2016-10-29T01:20:57.868Z,12.39
2016-10-29T01:21:57.883Z,12.42
2016-10-29T01:22:57.895Z,12.43
2016-10-29T01:23:57.912Z,12.39
2016-10-29T01:24:57.934Z,12.39
2016-10-29T01:25:57.953Z,12.39
2016-10-29T01:26:57.967Z,12.37
2016-10-29T01:27:57.986Z,12.39
2016-10-29T01:28:58.004Z,12.35
2016-10-29T01:29:58.022Z,12.29
2016-10-29T01:30:58.038Z,12.31
2016-10-29T01:31:58.058Z,12.31
2016-10-29T01:32:58.073Z,12.31
2016-10-29T01:33:58.091Z,12.25
2016-10-29T01:34:58.107Z,12.28
2016-10-29T01:35:58.131Z,12.24
2016-10-29T01:36:58.191Z,12.24
2016-10-29T01:37:58.485Z,12.25
2016-10-29T01:38:58.184Z,12.21
2016-10-29T01:39:58.444Z,12.27
2016-10-29T01:40:58.213Z,12.21
2016-10-29T01:41:58.236Z,12.21
2016-10-29T01:42:58.254Z,12.28
2016-10-29T01:43:58.273Z,12.24
2016-10-29T01:44:58.286Z,12.24
2016-10-29T01:45:58.299Z,12.28
2016-10-29T01:46:58.321Z,12.17
2016-10-29T01:47:58.342Z,12.21
2016-10-29T01:48:58.355Z,12.12
2016-10-29T01:49:58.373Z,12.18
2016-10-29T01:50:58.389Z,12.09
2016-10-29T01:51:58.409Z,12.13
2016-10-29T01:52:58.424Z,12.13
2016-10-29T01:53:58.443Z,12.15
2016-10-29T01:54:58.461Z,12.12
2016-10-29T01:55:58.477Z,12.15
2016-10-29T01:56:58.492Z,12.18
2016-10-29T01:57:58.512Z,12.07
2016-10-29T01:58:58.532Z,12.07
2016-10-29T01:59:58.591Z,12.09
2016-10-29T02:00:58.571Z,12.04
2016-10-29T02:01:58.592Z,12.17
2016-10-29T02:02:58.604Z,12.04
2016-10-29T02:03:58.627Z,12.09
2016-10-29T02:04:58.639Z,12.07
2016-10-29T02:05:58.654Z,12.04
2016-10-29T02:06:58.674Z,12.06
2016-10-29T02:07:58.691Z,12.04
2016-10-29T02:08:58.743Z,12.04
2016-10-29T02:09:58.728Z,12.1
2016-10-29T02:10:58.741Z,12.09
2016-10-29T02:11:58.759Z,12.06
2016-10-29T02:12:58.777Z,12.03
2016-10-29T02:13:58.799Z,12.06
2016-10-29T02:14:58.818Z,12
2016-10-29T02:15:58.831Z,12.06
2016-10-29T02:16:58.846Z,12.02
2016-10-29T02:17:58.873Z,11.97
2016-10-29T02:18:58.887Z,12.02
2016-10-29T02:19:58.901Z,12
2016-10-29T02:20:59.282Z,11.97
2016-10-29T02:21:58.938Z,12
2016-10-29T02:22:58.958Z,12.02
2016-10-29T02:23:58.972Z,12
2016-10-29T02:24:58.989Z,12
2016-10-29T02:25:59.004Z,12
2016-10-29T02:26:59.020Z,11.99
2016-10-29T02:27:59.040Z,11.99
2016-10-29T02:28:59.057Z,11.95
2016-10-29T02:29:59.083Z,12
2016-10-29T02:30:59.099Z,12.02
2016-10-29T02:31:59.111Z,12
2016-10-29T02:32:59.128Z,12
2016-10-29T02:33:59.146Z,11.97
2016-10-29T02:34:59.165Z,11.9
2016-10-29T02:35:59.184Z,12
2016-10-29T02:36:59.203Z,11.9
2016-10-29T02:37:59.221Z,11.99
2016-10-29T02:38:59.239Z,11.94
2016-10-29T02:39:59.248Z,11.86
2016-10-29T02:40:59.269Z,11.95
2016-10-29T02:41:59.284Z,11.88
2016-10-29T02:42:59.303Z,11.94
2016-10-29T02:43:59.327Z,11.84
2016-10-29T02:44:59.338Z,11.86
2016-10-29T02:45:59.354Z,11.91
2016-10-29T02:46:59.375Z,11.86
2016-10-29T02:47:59.388Z,11.87
2016-10-29T02:48:59.407Z,11.86
2016-10-29T02:49:59.422Z,11.91
2016-10-29T02:50:59.443Z,11.95
2016-10-29T02:51:59.455Z,11.87
2016-10-29T02:52:59.475Z,11.94
2016-10-29T02:53:59.496Z,11.84
2016-10-29T02:54:59.514Z,11.9
2016-10-29T02:55:59.526Z,11.9
2016-10-29T02:56:59.543Z,11.88
2016-10-29T02:57:59.562Z,11.91
2016-10-29T02:58:59.579Z,11.97
2016-10-29T02:59:59.599Z,11.9
2016-10-29T03:00:59.616Z,11.9
2016-10-29T03:01:59.635Z,11.87
2016-10-29T03:02:59.659Z,11.88
2016-10-29T03:03:59.676Z,11.9
2016-10-29T03:04:59.689Z,11.9
2016-10-29T03:05:59.705Z,11.9
2016-10-29T03:06:59.718Z,11.88
2016-10-29T03:07:59.749Z,11.86
2016-10-29T03:08:59.754Z,11.8
2016-10-29T03:09:59.769Z,11.87
2016-10-29T03:10:59.793Z,11.87
2016-10-29T03:11:59.812Z,11.87
2016-10-29T03:12:59.826Z,11.8
2016-10-29T03:13:59.837Z,11.7
2016-10-29T03:15:00.183Z,11.72
2016-10-29T03:15:59.885Z,11.66
2016-10-29T03:16:59.890Z,11.68
2016-10-29T03:17:59.918Z,11.83
2016-10-29T03:18:59.934Z,11.8
2016-10-29T03:19:59.960Z,11.78
2016-10-29T03:20:59.962Z,11.86
2016-10-29T03:21:59.981Z,11.81
2016-10-29T03:22:59.996Z,11.72
2016-10-29T03:24:00.012Z,11.83
2016-10-29T03:25:00.032Z,11.72
2016-10-29T03:26:00.051Z,11.8
2016-10-29T03:27:00.066Z,11.78
2016-10-29T03:28:00.081Z,11.81
2016-10-29T03:29:00.103Z,11.7
2016-10-29T03:30:00.118Z,11.77
2016-10-29T03:31:00.139Z,11.66
2016-10-29T03:32:00.151Z,11.63
2016-10-29T03:33:00.172Z,11.66
2016-10-29T03:34:00.187Z,11.6
2016-10-29T03:35:00.201Z,11.68
2016-10-29T03:36:00.235Z,11.65
2016-10-29T03:37:00.272Z,11.75
2016-10-29T03:38:00.259Z,11.68
2016-10-29T03:39:00.275Z,11.8
2016-10-29T03:40:00.293Z,11.73
2016-10-29T03:41:00.309Z,11.8
2016-10-29T03:42:00.328Z,11.75
2016-10-29T03:43:00.345Z,11.65
2016-10-29T03:44:00.361Z,11.69
2016-10-29T03:45:00.388Z,11.68
2016-10-29T03:46:00.399Z,11.73
2016-10-29T03:47:00.458Z,11.63
2016-10-29T03:48:00.430Z,11.68
2016-10-29T03:49:00.451Z,11.73
2016-10-29T03:50:00.469Z,11.65
2016-10-29T03:51:00.487Z,11.68
2016-10-29T03:52:00.501Z,11.68
2016-10-29T03:53:00.556Z,11.66
2016-10-29T03:54:00.539Z,11.65
2016-10-29T03:55:00.551Z,11.63
2016-10-29T03:56:00.567Z,11.66
2016-10-29T03:57:00.583Z,11.68
2016-10-29T03:58:00.604Z,11.68
2016-10-29T03:59:00.618Z,11.55
2016-10-29T04:00:00.642Z,11.59
2016-10-29T04:01:00.657Z,11.66
2016-10-29T04:02:00.683Z,11.6
2016-10-29T04:03:00.688Z,11.62
2016-10-29T04:04:01.095Z,11.59
2016-10-29T04:05:00.726Z,11.57
2016-10-29T04:06:00.745Z,11.57
2016-10-29T04:07:00.754Z,11.62
2016-10-29T04:08:00.781Z,11.68
2016-10-29T04:09:00.788Z,11.65
2016-10-29T04:10:00.905Z,11.62
2016-10-29T04:11:00.824Z,11.62
2016-10-29T04:12:00.845Z,11.57
2016-10-29T04:13:00.859Z,11.63
2016-10-29T04:14:00.884Z,11.66
2016-10-29T04:15:00.894Z,11.68
2016-10-29T04:16:00.922Z,11.55
2016-10-29T04:17:00.926Z,11.65
2016-10-29T04:18:00.947Z,11.55
2016-10-29T04:19:00.964Z,11.6
2016-10-29T04:20:00.996Z,11.54
2016-10-29T04:21:01.001Z,11.57
2016-10-29T04:22:01.024Z,11.51
2016-10-29T04:23:01.031Z,11.55
2016-10-29T04:24:01.048Z,11.51
2016-10-29T04:25:01.252Z,11.52
2016-10-29T04:26:01.079Z,11.5
2016-10-29T04:27:01.101Z,11.52
2016-10-29T04:28:01.117Z,11.51
2016-10-29T04:29:01.165Z,11.48
2016-10-29T04:30:01.163Z,11.55
2016-10-29T04:31:01.169Z,11.54
2016-10-29T04:32:01.185Z,11.52
2016-10-29T04:33:01.203Z,11.48
2016-10-29T04:34:01.229Z,11.5
2016-10-29T04:35:01.237Z,11.57
2016-10-29T04:36:01.258Z,11.54
2016-10-29T04:37:01.271Z,11.48
2016-10-29T04:38:01.287Z,11.5
2016-10-29T04:39:01.305Z,11.41
2016-10-29T04:40:01.326Z,11.5
2016-10-29T04:41:01.343Z,11.5
2016-10-29T04:42:01.356Z,11.55
2016-10-29T04:43:01.693Z,11.47
2016-10-29T04:44:01.399Z,11.52
2016-10-29T04:45:01.406Z,11.41
2016-10-29T04:46:01.426Z,11.47
2016-10-29T04:47:01.444Z,11.47
2016-10-29T04:48:01.496Z,11.51
2016-10-29T04:49:01.480Z,11.47
2016-10-29T04:50:01.544Z,11.51
2016-10-29T04:51:01.508Z,11.51
2016-10-29T04:52:01.522Z,11.47
2016-10-29T04:53:01.544Z,11.47
2016-10-29T04:54:01.561Z,11.5
2016-10-29T04:55:01.576Z,11.48
2016-10-29T04:56:01.595Z,11.5
2016-10-29T04:57:01.611Z,11.45
2016-10-29T04:58:01.638Z,11.52
2016-10-29T04:59:01.642Z,11.54
2016-10-29T05:00:01.664Z,11.54
2016-10-29T05:01:01.684Z,11.45
2016-10-29T05:02:01.704Z,11.48
2016-10-29T05:03:02.034Z,11.51
2016-10-29T05:04:01.733Z,11.48
2016-10-29T05:05:01.758Z,11.52
2016-10-29T05:06:01.767Z,11.52
2016-10-29T05:07:01.826Z,11.47
2016-10-29T05:08:01.799Z,11.47
2016-10-29T05:09:01.830Z,11.44
2016-10-29T05:10:01.834Z,11.45
2016-10-29T05:11:01.875Z,11.52
2016-10-29T05:12:01.864Z,11.54
2016-10-29T05:13:01.924Z,11.48
2016-10-29T05:14:01.899Z,11.47
2016-10-29T05:15:01.919Z,11.48
2016-10-29T05:16:01.935Z,11.47
2016-10-29T05:17:01.951Z,11.44
2016-10-29T05:18:01.968Z,11.48
2016-10-29T05:19:01.985Z,11.47
2016-10-29T05:20:02.006Z,11.54
2016-10-29T05:21:02.024Z,11.5
2016-10-29T05:22:02.040Z,11.5
2016-10-29T05:23:02.064Z,11.44
2016-10-29T05:24:02.070Z,11.41
2016-10-29T05:25:02.091Z,11.54
2016-10-29T05:26:02.106Z,11.44
2016-10-29T05:27:02.124Z,11.5
2016-10-29T05:28:02.143Z,11.44
2016-10-29T05:29:02.159Z,11.48
2016-10-29T05:30:02.178Z,11.5
2016-10-29T05:31:02.190Z,11.48
2016-10-29T05:32:02.211Z,11.48
2016-10-29T05:33:02.222Z,11.44
2016-10-29T05:34:02.243Z,11.44
2016-10-29T05:35:02.258Z,11.48
2016-10-29T05:36:02.274Z,11.41
2016-10-29T05:37:02.299Z,11.47
2016-10-29T05:38:02.313Z,11.47
2016-10-29T05:39:02.643Z,11.48
2016-10-29T05:40:02.351Z,11.45
2016-10-29T05:41:02.370Z,11.47
2016-10-29T05:42:02.429Z,11.47
2016-10-29T05:43:02.394Z,11.47
2016-10-29T05:44:02.416Z,11.47
2016-10-29T05:45:02.429Z,11.47
2016-10-29T05:46:02.444Z,11.48
2016-10-29T05:47:02.459Z,11.5
2016-10-29T05:48:02.490Z,11.47
2016-10-29T05:49:02.492Z,11.51
2016-10-29T05:50:02.516Z,11.5
2016-10-29T05:51:02.529Z,11.54
2016-10-29T05:52:02.547Z,11.47
2016-10-29T05:53:02.567Z,11.47
2016-10-29T05:54:02.642Z,11.47
2016-10-29T05:55:02.598Z,11.51
2016-10-29T05:56:02.619Z,11.5
2016-10-29T05:57:02.632Z,11.52
2016-10-29T05:58:02.644Z,11.47
2016-10-29T05:59:02.908Z,11.51
2016-10-29T06:00:02.685Z,11.43
2016-10-29T06:01:02.706Z,11.47
2016-10-29T06:02:02.730Z,11.5
2016-10-29T06:03:02.734Z,11.48
2016-10-29T06:04:02.759Z,11.57
2016-10-29T06:05:02.773Z,11.47
2016-10-29T06:06:02.807Z,11.5
2016-10-29T06:07:02.803Z,11.54
2016-10-29T06:08:02.816Z,11.5
2016-10-29T06:09:02.836Z,11.44
2016-10-29T06:10:02.882Z,11.51
2016-10-29T06:11:02.869Z,11.51
2016-10-29T06:12:02.909Z,11.52
2016-10-29T06:13:02.903Z,11.54
2016-10-29T06:14:02.922Z,11.47
2016-10-29T06:15:02.939Z,11.47
2016-10-29T06:16:02.964Z,11.6
2016-10-29T06:17:02.968Z,11.48
2016-10-29T06:18:03.053Z,11.51
2016-10-29T06:19:03.020Z,11.5
2016-10-29T06:20:03.030Z,11.55
2016-10-29T06:21:03.046Z,11.54
2016-10-29T06:22:03.094Z,11.55
2016-10-29T06:23:03.073Z,11.55
2016-10-29T06:24:03.114Z,11.57
2016-10-29T06:25:03.107Z,11.57
2016-10-29T06:26:03.132Z,11.6
2016-10-29T06:27:03.148Z,11.59
2016-10-29T06:28:03.162Z,11.63
2016-10-29T06:29:03.180Z,11.59
2016-10-29T06:30:03.208Z,11.6
2016-10-29T06:31:03.214Z,11.57
2016-10-29T06:32:03.235Z,11.6
2016-10-29T06:33:03.357Z,11.62
2016-10-29T06:34:03.545Z,11.68
2016-10-29T06:35:03.277Z,11.63
2016-10-29T06:36:03.296Z,11.65
2016-10-29T06:37:03.318Z,11.62
2016-10-29T06:38:03.328Z,11.66
2016-10-29T06:39:03.350Z,11.63
2016-10-29T06:40:03.376Z,11.69
2016-10-29T06:41:03.383Z,11.65
2016-10-29T06:42:03.401Z,11.66
2016-10-29T06:43:03.454Z,11.66
2016-10-29T06:44:03.431Z,11.66
2016-10-29T06:45:03.448Z,11.7
2016-10-29T06:46:03.464Z,11.63
2016-10-29T06:47:03.484Z,11.7
2016-10-29T06:48:03.506Z,11.66
2016-10-29T06:49:03.604Z,11.77
2016-10-29T06:50:03.534Z,11.69
2016-10-29T06:51:03.550Z,11.72
2016-10-29T06:52:03.688Z,11.68
2016-10-29T06:53:03.666Z,11.66
2016-10-29T06:54:03.619Z,11.68
2016-10-29T06:55:03.617Z,11.62
2016-10-29T06:56:03.648Z,11.72
2016-10-29T06:57:03.655Z,11.68
2016-10-29T06:58:03.669Z,11.75
2016-10-29T06:59:03.690Z,11.75
2016-10-29T07:00:03.708Z,11.72
2016-10-29T07:01:03.729Z,11.75
2016-10-29T07:02:03.741Z,11.7
2016-10-29T07:03:03.760Z,11.77
2016-10-29T07:04:03.775Z,11.73
2016-10-29T07:05:04.109Z,11.7
2016-10-29T07:06:03.810Z,11.77
2016-10-29T07:07:03.827Z,11.65
2016-10-29T07:08:03.846Z,11.73
2016-10-29T07:09:03.861Z,11.7
2016-10-29T07:10:03.875Z,11.78
2016-10-29T07:11:03.893Z,11.77
2016-10-29T07:12:03.907Z,11.77
2016-10-29T07:13:03.930Z,11.77
2016-10-29T07:14:03.944Z,11.77
2016-10-29T07:15:03.967Z,11.75
2016-10-29T07:16:03.981Z,11.8
2016-10-29T07:17:03.994Z,11.75
2016-10-29T07:18:04.051Z,11.73
2016-10-29T07:19:04.037Z,11.83
2016-10-29T07:20:04.057Z,11.83
2016-10-29T07:21:04.066Z,11.77
2016-10-29T07:22:04.082Z,11.7
2016-10-29T07:23:04.099Z,11.75
2016-10-29T07:24:04.125Z,11.86
2016-10-29T07:25:04.135Z,11.83
2016-10-29T07:26:04.153Z,11.9
2016-10-29T07:27:04.161Z,11.87
2016-10-29T07:28:04.187Z,11.87
2016-10-29T07:29:04.202Z,11.95
2016-10-29T07:30:04.220Z,11.91
2016-10-29T07:31:04.233Z,11.94
2016-10-29T07:32:04.257Z,11.9
2016-10-29T07:33:04.385Z,11.94
2016-10-29T07:34:04.288Z,11.88
2016-10-29T07:35:04.306Z,11.95
2016-10-29T07:36:04.324Z,11.94
2016-10-29T07:37:04.354Z,11.87
2016-10-29T07:38:04.356Z,12.02
2016-10-29T07:39:04.372Z,12
2016-10-29T07:40:04.391Z,11.99
2016-10-29T07:41:04.404Z,12.13
2016-10-29T07:42:04.420Z,12.09
2016-10-29T07:43:04.483Z,12
2016-10-29T07:44:04.463Z,12.07
2016-10-29T07:45:04.475Z,12.13
2016-10-29T07:46:04.493Z,12.15
2016-10-29T07:47:04.554Z,12.17
2016-10-29T07:48:04.528Z,12.06
2016-10-29T07:49:04.547Z,12.12
2016-10-29T07:50:04.564Z,12.18
2016-10-29T07:51:04.578Z,12.22
2016-10-29T07:52:04.598Z,12.17
2016-10-29T07:53:04.617Z,12.21
2016-10-29T07:54:04.634Z,12.25
2016-10-29T07:55:04.653Z,12.29
2016-10-29T07:56:04.672Z,12.24
2016-10-29T07:57:04.692Z,12.25
2016-10-29T07:58:04.699Z,12.27
2016-10-29T07:59:04.761Z,12.28
2016-10-29T08:00:04.748Z,12.27
2016-10-29T08:01:04.756Z,12.27
2016-10-29T08:02:04.789Z,12.21
2016-10-29T08:03:04.784Z,12.27
2016-10-29T08:04:04.805Z,12.42
2016-10-29T08:05:04.824Z,12.4
2016-10-29T08:06:04.840Z,12.43
2016-10-29T08:07:04.857Z,12.43
2016-10-29T08:08:04.884Z,12.35
2016-10-29T08:09:04.891Z,12.45
2016-10-29T08:10:04.908Z,12.45
2016-10-29T08:11:04.924Z,12.32
2016-10-29T08:12:04.944Z,12.39
2016-10-29T08:13:04.958Z,12.29
2016-10-29T08:14:04.992Z,12.4
2016-10-29T08:15:05.002Z,12.42
2016-10-29T08:16:05.025Z,12.37
2016-10-29T08:17:05.029Z,12.43
2016-10-29T08:18:05.164Z,12.42
2016-10-29T08:19:05.173Z,12.42
2016-10-29T08:20:05.309Z,12.42
2016-10-29T08:21:05.126Z,12.45
2016-10-29T08:22:05.132Z,12.47
2016-10-29T08:23:05.134Z,12.46
2016-10-29T08:24:05.157Z,12.45
2016-10-29T08:25:05.206Z,12.46
2016-10-29T08:26:05.192Z,12.45
2016-10-29T08:27:05.204Z,12.4
2016-10-29T08:28:05.233Z,12.4
2016-10-29T08:29:05.241Z,12.45
2016-10-29T08:30:05.323Z,12.5
2016-10-29T08:31:05.276Z,12.45
2016-10-29T08:32:05.291Z,12.5
2016-10-29T08:33:05.307Z,12.54
2016-10-29T08:34:05.332Z,12.49
2016-10-29T08:35:05.345Z,12.5
2016-10-29T08:36:05.379Z,12.5
2016-10-29T08:37:05.376Z,12.47
2016-10-29T08:38:05.403Z,12.47
2016-10-29T08:39:05.420Z,12.47
2016-10-29T08:40:05.537Z,12.5
2016-10-29T08:41:05.541Z,12.53
2016-10-29T08:42:05.571Z,12.61
2016-10-29T08:43:05.485Z,12.55
2016-10-29T08:44:05.517Z,12.54
2016-10-29T08:45:05.518Z,12.64
2016-10-29T08:46:05.540Z,12.67
2016-10-29T08:47:05.558Z,12.65
2016-10-29T08:48:05.575Z,12.65
2016-10-29T08:49:05.589Z,12.64
2016-10-29T08:50:05.610Z,12.65
2016-10-29T08:51:05.624Z,12.54
2016-10-29T08:52:05.651Z,12.61
2016-10-29T08:53:05.663Z,12.62
2016-10-29T08:54:05.675Z,12.7
2016-10-29T08:55:05.706Z,12.73
2016-10-29T08:56:05.713Z,12.76
2016-10-29T08:57:06.070Z,12.7
2016-10-29T08:58:05.762Z,12.67
2016-10-29T08:59:05.805Z,12.67
2016-10-29T09:00:05.784Z,12.72
2016-10-29T09:01:05.798Z,12.72
2016-10-29T09:02:05.820Z,12.78
2016-10-29T09:03:05.961Z,12.79
2016-10-29T09:04:05.873Z,12.8
2016-10-29T09:05:05.874Z,12.78
2016-10-29T09:06:05.899Z,12.82
2016-10-29T09:07:05.903Z,12.85
2016-10-29T09:08:05.921Z,12.82
2016-10-29T09:09:05.953Z,12.85
2016-10-29T09:10:05.959Z,12.86
2016-10-29T09:11:05.981Z,12.82
2016-10-29T09:12:06.087Z,12.94
2016-10-29T09:13:06.327Z,12.94
2016-10-29T09:14:06.029Z,12.86
2016-10-29T09:15:06.051Z,12.9
2016-10-29T09:16:06.068Z,12.98
2016-10-29T09:17:06.079Z,12.94
2016-10-29T09:18:06.129Z,13.03
2016-10-29T09:19:06.119Z,13.01
2016-10-29T09:20:06.137Z,13.09
2016-10-29T09:21:06.156Z,13.03
2016-10-29T09:22:06.175Z,13.01
2016-10-29T09:23:06.300Z,13.11
2016-10-29T09:24:06.206Z,13
2016-10-29T09:25:06.340Z,13.08
2016-10-29T09:26:06.248Z,13.04
2016-10-29T09:27:06.263Z,13.13
2016-10-29T09:28:06.278Z,13.22
2016-10-29T09:29:06.307Z,13.19
2016-10-29T09:30:06.436Z,13.25
2016-10-29T09:31:06.333Z,13.16
2016-10-29T09:32:06.352Z,13.18
2016-10-29T09:33:06.488Z,13.33
2016-10-29T09:34:06.386Z,13.31
2016-10-29T09:35:06.404Z,13.28
2016-10-29T09:36:06.421Z,13.31
2016-10-29T09:37:06.442Z,13.31
2016-10-29T09:38:06.571Z,13.37
2016-10-29T09:39:06.474Z,13.31
2016-10-29T09:40:06.493Z,13.42
2016-10-29T09:41:06.513Z,13.44
2016-10-29T09:42:06.589Z,13.46
2016-10-29T09:43:06.547Z,13.49
2016-10-29T09:44:06.573Z,13.5
2016-10-29T09:45:06.586Z,13.5
2016-10-29T09:46:06.625Z,13.56
2016-10-29T09:47:06.620Z,13.59
2016-10-29T09:48:06.636Z,13.63
2016-10-29T09:49:06.665Z,13.6
2016-10-29T09:50:06.677Z,13.65
2016-10-29T09:51:06.700Z,13.67
2016-10-29T09:52:06.716Z,13.74
2016-10-29T09:53:06.724Z,13.72
2016-10-29T09:54:06.743Z,13.7
2016-10-29T09:55:06.875Z,13.78
2016-10-29T09:56:06.789Z,13.75
2016-10-29T09:57:06.800Z,13.81
2016-10-29T09:58:06.818Z,13.83
2016-10-29T09:59:06.838Z,13.79
2016-10-29T10:00:06.857Z,13.79
2016-10-29T10:01:06.878Z,13.87
2016-10-29T10:02:06.894Z,13.86
2016-10-29T10:03:06.953Z,13.89
2016-10-29T10:04:06.927Z,13.81
2016-10-29T10:05:06.972Z,13.9
2016-10-29T10:06:06.974Z,13.99
2016-10-29T10:07:07.095Z,13.9
2016-10-29T10:08:07.000Z,14
2016-10-29T10:09:07.026Z,13.96
2016-10-29T10:10:07.043Z,14.04
2016-10-29T10:11:09.200Z,14
2016-10-29T10:12:07.562Z,14.08
2016-10-29T10:13:07.098Z,14.05
2016-10-29T10:14:07.150Z,14.11
2016-10-29T10:15:07.137Z,14.15
2016-10-29T10:16:07.154Z,14.17
2016-10-29T10:17:07.163Z,14.17
2016-10-29T10:18:07.188Z,14.22
2016-10-29T10:19:07.206Z,14.22
2016-10-29T10:20:07.223Z,14.18
2016-10-29T10:21:07.358Z,14.23
2016-10-29T10:22:07.257Z,14.18
2016-10-29T10:23:07.278Z,14.3
2016-10-29T10:24:07.408Z,14.29
2016-10-29T10:25:07.408Z,14.28
2016-10-29T10:26:07.333Z,14.2
2016-10-29T10:27:07.352Z,14.28
2016-10-29T10:28:07.373Z,14.3
2016-10-29T10:29:07.394Z,14.3
2016-10-29T10:30:07.410Z,14.36
2016-10-29T10:31:07.428Z,14.37
2016-10-29T10:32:07.447Z,14.36
2016-10-29T10:33:07.485Z,14.35
2016-10-29T10:34:07.485Z,14.35
2016-10-29T10:35:07.504Z,14.44
2016-10-29T10:36:07.836Z,14.41
2016-10-29T10:37:07.552Z,14.44
2016-10-29T10:38:07.560Z,14.45
2016-10-29T10:39:07.576Z,14.4
2016-10-29T10:40:07.644Z,14.41
2016-10-29T10:41:07.727Z,14.41
2016-10-29T10:42:07.634Z,14.51
2016-10-29T10:43:07.651Z,14.48
2016-10-29T10:44:07.670Z,14.5
2016-10-29T10:45:07.691Z,14.51
2016-10-29T10:46:07.711Z,14.53
2016-10-29T10:47:07.725Z,14.48
2016-10-29T10:48:07.748Z,14.58
2016-10-29T10:49:07.766Z,14.51
2016-10-29T10:50:07.790Z,14.47
2016-10-29T10:51:07.804Z,14.48
2016-10-29T10:52:07.821Z,14.48
2016-10-29T10:53:07.845Z,14.48
2016-10-29T10:54:07.976Z,14.53
2016-10-29T10:55:08.192Z,14.5
2016-10-29T10:56:08.002Z,14.47
2016-10-29T10:57:07.914Z,14.41
2016-10-29T10:58:07.967Z,14.45
2016-10-29T10:59:07.971Z,14.35
2016-10-29T11:00:07.976Z,14.33
2016-10-29T11:01:07.994Z,14.36
2016-10-29T11:02:08.009Z,14.26
2016-10-29T11:03:08.029Z,14.28
2016-10-29T11:04:08.049Z,14.28
2016-10-29T11:05:08.071Z,14.25
2016-10-29T11:06:08.086Z,14.26
2016-10-29T11:07:08.150Z,14.25
2016-10-29T11:08:08.209Z,14.23
2016-10-29T11:09:08.259Z,14.2
2016-10-29T11:10:08.255Z,14.23
2016-10-29T11:11:08.268Z,14.14
2016-10-29T11:12:08.275Z,14.23
2016-10-29T11:13:08.342Z,14.22
2016-10-29T11:14:08.238Z,14.25
2016-10-29T11:15:08.256Z,14.28
2016-10-29T11:16:08.273Z,14.22
2016-10-29T11:17:08.293Z,14.22
2016-10-29T11:18:08.317Z,14.23
2016-10-29T11:19:08.331Z,14.3
2016-10-29T11:20:08.355Z,14.26
2016-10-29T11:21:08.475Z,14.32
2016-10-29T11:22:08.395Z,14.28
2016-10-29T11:23:08.415Z,14.29
2016-10-29T11:24:08.425Z,14.33
2016-10-29T11:25:08.447Z,14.33
2016-10-29T11:26:08.465Z,14.4
2016-10-29T11:27:08.484Z,14.44
2016-10-29T11:28:08.503Z,14.45
2016-10-29T11:29:08.528Z,14.37
2016-10-29T11:30:08.544Z,14.51
2016-10-29T11:31:08.556Z,14.45
2016-10-29T11:32:08.577Z,14.54
2016-10-29T11:33:08.606Z,14.51
2016-10-29T11:34:08.625Z,14.54
2016-10-29T11:35:08.634Z,14.5
2016-10-29T11:36:08.652Z,14.58
2016-10-29T11:37:08.673Z,14.5
2016-10-29T11:38:08.699Z,14.54
2016-10-29T11:39:08.716Z,14.58
2016-10-29T11:40:08.731Z,14.54
2016-10-29T11:41:08.755Z,14.62
2016-10-29T11:42:08.774Z,14.58
2016-10-29T11:43:08.791Z,14.5
2016-10-29T11:44:08.806Z,14.55
2016-10-29T11:45:08.824Z,14.54
2016-10-29T11:46:08.874Z,14.63
2016-10-29T11:47:08.874Z,14.63
2016-10-29T11:48:08.884Z,14.66
2016-10-29T11:49:08.907Z,14.63
2016-10-29T11:50:08.972Z,14.68
2016-10-29T11:51:08.943Z,14.72
2016-10-29T11:52:09.024Z,14.72
2016-10-29T11:53:08.980Z,14.77
2016-10-29T11:54:09.038Z,14.77
2016-10-29T11:55:09.015Z,14.72
2016-10-29T11:56:09.036Z,14.7
2016-10-29T11:57:09.132Z,14.69
2016-10-29T11:58:09.072Z,14.66
2016-10-29T11:59:09.092Z,14.65
2016-10-29T12:00:09.111Z,14.72
2016-10-29T12:01:09.135Z,14.77
2016-10-29T12:02:09.156Z,14.78
2016-10-29T12:03:09.168Z,14.73
2016-10-29T12:04:09.199Z,14.79
2016-10-29T12:05:09.212Z,14.77
2016-10-29T12:06:09.230Z,14.84
2016-10-29T12:07:09.249Z,14.78
2016-10-29T12:08:09.267Z,14.82
2016-10-29T12:09:09.286Z,14.81
2016-10-29T12:10:09.303Z,14.82
2016-10-29T12:11:09.325Z,14.77
2016-10-29T12:12:09.344Z,14.81
2016-10-29T12:13:09.372Z,14.85
2016-10-29T12:14:09.383Z,14.73
2016-10-29T12:15:09.399Z,14.79
2016-10-29T12:16:09.417Z,14.81
2016-10-29T12:17:09.436Z,14.73
2016-10-29T12:18:09.458Z,14.78
2016-10-29T12:19:09.475Z,14.72
2016-10-29T12:20:09.496Z,14.69
2016-10-29T12:21:09.516Z,14.77
2016-10-29T12:22:09.535Z,14.78
2016-10-29T12:23:09.597Z,14.7
2016-10-29T12:24:09.575Z,14.65
2016-10-29T12:25:09.593Z,14.66
2016-10-29T12:26:09.616Z,14.65
2016-10-29T12:27:09.629Z,14.65
2016-10-29T12:28:09.687Z,14.65
2016-10-29T12:29:09.711Z,14.58
2016-10-29T12:30:09.698Z,14.53
2016-10-29T12:31:09.711Z,14.48
2016-10-29T12:32:09.725Z,14.53
2016-10-29T12:33:09.746Z,14.45
2016-10-29T12:34:09.771Z,14.51
2016-10-29T12:35:09.784Z,14.55
2016-10-29T12:36:09.805Z,14.54
2016-10-29T12:37:09.828Z,14.5
2016-10-29T12:38:09.841Z,14.47
2016-10-29T12:39:09.870Z,14.59
2016-10-29T12:40:09.891Z,14.62
2016-10-29T12:41:10.105Z,14.51
2016-10-29T12:42:09.920Z,14.6
2016-10-29T12:43:09.940Z,14.5
2016-10-29T12:44:09.957Z,14.53
2016-10-29T12:45:10.035Z,14.66
2016-10-29T12:46:10.000Z,14.6
2016-10-29T12:47:10.331Z,14.65
2016-10-29T12:48:10.038Z,14.65
2016-10-29T12:49:10.053Z,14.68
2016-10-29T12:50:10.077Z,14.68
2016-10-29T12:51:10.100Z,14.7
2016-10-29T12:52:10.112Z,14.68
2016-10-29T12:53:10.143Z,14.81
2016-10-29T12:54:10.148Z,14.79
2016-10-29T12:55:10.270Z,14.85
2016-10-29T12:56:10.188Z,14.91
2016-10-29T12:57:10.210Z,14.94
2016-10-29T12:58:10.225Z,15.02